sensor_id;sensor_type;location;lat;lon;timestamp;P1;durP1;ratioP1;P2;durP2;ratioP2
11504;SDS011;5809;53.262;10.408;2023-07-08T00:01:08;6.50;;;4.30;;
11504;SDS011;5809;53.262;10.408;2023-07-08T00:03:39;6.45;;;4.75;;
11504;SDS011;5809;53.262;10.408;2023-07-08T00:06:09;5.47;;;4.32;;
11504;SDS011;5809;53.262;10.408;2023-07-08T00:08:39;5.78;;;4.80;;
11504;SDS011;5809;53.262;10.408;2023-07-08T00:11:07;6.10;;;4.63;;
11504;SDS011;5809;53.262;10.408;2023-07-08T00:13:36;5.80;;;4.47;;
11504;SDS011;5809;53.262;10.408;2023-07-08T00:16:03;5.03;;;4.30;;
11504;SDS011;5809;53.262;10.408;2023-07-08T00:18:30;10.60;;;4.68;;
11504;SDS011;5809;53.262;10.408;2023-07-08T00:20:58;5.03;;;4.53;;
11504;SDS011;5809;53.262;10.408;2023-07-08T00:23:25;5.28;;;4.50;;
11504;SDS011;5809;53.262;10.408;2023-07-08T00:25:52;6.88;;;4.82;;
11504;SDS011;5809;53.262;10.408;2023-07-08T00:28:19;5.97;;;4.43;;
11504;SDS011;5809;53.262;10.408;2023-07-08T00:30:47;6.05;;;4.40;;
11504;SDS011;5809;53.262;10.408;2023-07-08T00:33:14;6.95;;;4.50;;
11504;SDS011;5809;53.262;10.408;2023-07-08T00:35:41;6.80;;;4.60;;
11504;SDS011;5809;53.262;10.408;2023-07-08T00:38:13;8.93;;;4.43;;
11504;SDS011;5809;53.262;10.408;2023-07-08T00:40:48;6.60;;;4.53;;
11504;SDS011;5809;53.262;10.408;2023-07-08T00:43:16;5.15;;;4.63;;
11504;SDS011;5809;53.262;10.408;2023-07-08T00:45:46;5.10;;;4.60;;
11504;SDS011;5809;53.262;10.408;2023-07-08T00:48:18;6.43;;;4.50;;
11504;SDS011;5809;53.262;10.408;2023-07-08T00:50:48;6.07;;;4.55;;
11504;SDS011;5809;53.262;10.408;2023-07-08T00:53:25;5.43;;;4.78;;
11504;SDS011;5809;53.262;10.408;2023-07-08T00:55:54;6.93;;;4.30;;
11504;SDS011;5809;53.262;10.408;2023-07-08T00:58:23;10.30;;;5.00;;
11504;SDS011;5809;53.262;10.408;2023-07-08T01:00:54;5.93;;;4.45;;
11504;SDS011;5809;53.262;10.408;2023-07-08T01:03:23;5.28;;;4.57;;
11504;SDS011;5809;53.262;10.408;2023-07-08T01:05:50;9.57;;;4.97;;
11504;SDS011;5809;53.262;10.408;2023-07-08T01:08:17;8.85;;;4.70;;
11504;SDS011;5809;53.262;10.408;2023-07-08T01:10:56;5.25;;;4.75;;
11504;SDS011;5809;53.262;10.408;2023-07-08T01:13:26;6.15;;;5.18;;
11504;SDS011;5809;53.262;10.408;2023-07-08T01:15:54;9.02;;;4.60;;
11504;SDS011;5809;53.262;10.408;2023-07-08T01:18:21;7.47;;;4.80;;
11504;SDS011;5809;53.262;10.408;2023-07-08T01:20:49;6.22;;;4.78;;
11504;SDS011;5809;53.262;10.408;2023-07-08T01:23:21;6.30;;;4.75;;
11504;SDS011;5809;53.262;10.408;2023-07-08T01:25:49;7.97;;;5.18;;
11504;SDS011;5809;53.262;10.408;2023-07-08T01:28:16;6.43;;;4.60;;
11504;SDS011;5809;53.262;10.408;2023-07-08T01:30:43;6.80;;;4.88;;
11504;SDS011;5809;53.262;10.408;2023-07-08T01:33:13;6.10;;;4.72;;
11504;SDS011;5809;53.262;10.408;2023-07-08T01:35:44;8.90;;;5.40;;
11504;SDS011;5809;53.262;10.408;2023-07-08T01:38:11;5.15;;;4.43;;
11504;SDS011;5809;53.262;10.408;2023-07-08T01:40:48;6.60;;;5.05;;
11504;SDS011;5809;53.262;10.408;2023-07-08T01:43:16;9.07;;;5.60;;
11504;SDS011;5809;53.262;10.408;2023-07-08T01:45:43;8.65;;;5.13;;
11504;SDS011;5809;53.262;10.408;2023-07-08T01:48:11;8.15;;;5.50;;
11504;SDS011;5809;53.262;10.408;2023-07-08T01:50:41;7.50;;;5.57;;
11504;SDS011;5809;53.262;10.408;2023-07-08T01:53:13;6.80;;;5.00;;
11504;SDS011;5809;53.262;10.408;2023-07-08T01:55:41;5.38;;;4.85;;
11504;SDS011;5809;53.262;10.408;2023-07-08T01:58:09;6.18;;;5.10;;
11504;SDS011;5809;53.262;10.408;2023-07-08T02:00:36;7.28;;;5.07;;
11504;SDS011;5809;53.262;10.408;2023-07-08T02:03:03;6.82;;;5.03;;
11504;SDS011;5809;53.262;10.408;2023-07-08T02:05:30;9.65;;;5.15;;
11504;SDS011;5809;53.262;10.408;2023-07-08T02:07:57;5.50;;;4.55;;
11504;SDS011;5809;53.262;10.408;2023-07-08T02:10:24;7.50;;;5.38;;
11504;SDS011;5809;53.262;10.408;2023-07-08T02:12:51;7.97;;;5.00;;
11504;SDS011;5809;53.262;10.408;2023-07-08T02:15:19;7.22;;;5.00;;
11504;SDS011;5809;53.262;10.408;2023-07-08T02:17:46;6.38;;;5.25;;
11504;SDS011;5809;53.262;10.408;2023-07-08T02:20:14;5.72;;;4.70;;
11504;SDS011;5809;53.262;10.408;2023-07-08T02:22:41;7.00;;;5.07;;
11504;SDS011;5809;53.262;10.408;2023-07-08T02:25:07;7.20;;;4.85;;
11504;SDS011;5809;53.262;10.408;2023-07-08T02:27:35;6.80;;;5.00;;
11504;SDS011;5809;53.262;10.408;2023-07-08T02:30:03;7.00;;;4.93;;
11504;SDS011;5809;53.262;10.408;2023-07-08T02:32:32;5.22;;;4.65;;
11504;SDS011;5809;53.262;10.408;2023-07-08T02:34:59;7.97;;;5.07;;
11504;SDS011;5809;53.262;10.408;2023-07-08T02:37:26;5.38;;;4.88;;
11504;SDS011;5809;53.262;10.408;2023-07-08T02:39:53;5.57;;;4.80;;
11504;SDS011;5809;53.262;10.408;2023-07-08T02:42:20;5.70;;;4.85;;
11504;SDS011;5809;53.262;10.408;2023-07-08T02:44:47;6.55;;;4.97;;
11504;SDS011;5809;53.262;10.408;2023-07-08T02:47:14;6.53;;;5.35;;
11504;SDS011;5809;53.262;10.408;2023-07-08T02:49:42;5.57;;;4.93;;
11504;SDS011;5809;53.262;10.408;2023-07-08T02:52:09;8.80;;;5.30;;
11504;SDS011;5809;53.262;10.408;2023-07-08T02:54:36;6.95;;;5.00;;
11504;SDS011;5809;53.262;10.408;2023-07-08T02:57:03;6.15;;;4.75;;
11504;SDS011;5809;53.262;10.408;2023-07-08T02:59:30;6.57;;;5.30;;
11504;SDS011;5809;53.262;10.408;2023-07-08T03:01:57;5.68;;;5.07;;
11504;SDS011;5809;53.262;10.408;2023-07-08T03:04:24;6.47;;;5.18;;
11504;SDS011;5809;53.262;10.408;2023-07-08T03:06:53;6.22;;;5.03;;
11504;SDS011;5809;53.262;10.408;2023-07-08T03:09:20;8.55;;;5.13;;
11504;SDS011;5809;53.262;10.408;2023-07-08T03:11:46;6.55;;;5.25;;
11504;SDS011;5809;53.262;10.408;2023-07-08T03:14:13;7.68;;;5.72;;
11504;SDS011;5809;53.262;10.408;2023-07-08T03:16:40;8.27;;;5.22;;
11504;SDS011;5809;53.262;10.408;2023-07-08T03:19:07;6.75;;;4.97;;
11504;SDS011;5809;53.262;10.408;2023-07-08T03:21:39;6.25;;;5.30;;
11504;SDS011;5809;53.262;10.408;2023-07-08T03:24:08;9.10;;;5.40;;
11504;SDS011;5809;53.262;10.408;2023-07-08T03:26:36;8.30;;;5.28;;
11504;SDS011;5809;53.262;10.408;2023-07-08T03:29:04;5.60;;;5.05;;
11504;SDS011;5809;53.262;10.408;2023-07-08T03:31:31;7.05;;;4.57;;
11504;SDS011;5809;53.262;10.408;2023-07-08T03:33:58;5.45;;;4.75;;
11504;SDS011;5809;53.262;10.408;2023-07-08T03:36:25;5.75;;;4.85;;
11504;SDS011;5809;53.262;10.408;2023-07-08T03:38:53;6.05;;;4.88;;
11504;SDS011;5809;53.262;10.408;2023-07-08T03:41:23;6.50;;;5.18;;
11504;SDS011;5809;53.262;10.408;2023-07-08T03:43:50;6.88;;;5.03;;
11504;SDS011;5809;53.262;10.408;2023-07-08T03:46:17;5.43;;;4.93;;
11504;SDS011;5809;53.262;10.408;2023-07-08T03:48:45;8.77;;;5.07;;
11504;SDS011;5809;53.262;10.408;2023-07-08T03:51:14;6.90;;;5.18;;
11504;SDS011;5809;53.262;10.408;2023-07-08T03:53:47;7.75;;;5.25;;
11504;SDS011;5809;53.262;10.408;2023-07-08T03:56:14;8.32;;;5.30;;
11504;SDS011;5809;53.262;10.408;2023-07-08T03:58:42;5.22;;;4.63;;
11504;SDS011;5809;53.262;10.408;2023-07-08T04:01:09;5.40;;;4.90;;
11504;SDS011;5809;53.262;10.408;2023-07-08T04:03:41;8.40;;;4.75;;
11504;SDS011;5809;53.262;10.408;2023-07-08T04:06:08;5.60;;;4.97;;
11504;SDS011;5809;53.262;10.408;2023-07-08T04:08:35;5.63;;;5.00;;
11504;SDS011;5809;53.262;10.408;2023-07-08T04:11:02;7.65;;;4.70;;
11504;SDS011;5809;53.262;10.408;2023-07-08T04:13:29;6.25;;;4.78;;
11504;SDS011;5809;53.262;10.408;2023-07-08T04:15:58;9.25;;;5.28;;
11504;SDS011;5809;53.262;10.408;2023-07-08T04:18:27;7.63;;;5.50;;
11504;SDS011;5809;53.262;10.408;2023-07-08T04:20:54;8.55;;;5.30;;
11504;SDS011;5809;53.262;10.408;2023-07-08T04:23:21;6.50;;;4.75;;
11504;SDS011;5809;53.262;10.408;2023-07-08T04:25:49;7.38;;;4.90;;
11504;SDS011;5809;53.262;10.408;2023-07-08T04:28:17;5.45;;;4.95;;
11504;SDS011;5809;53.262;10.408;2023-07-08T04:30:44;5.43;;;4.72;;
11504;SDS011;5809;53.262;10.408;2023-07-08T04:33:14;8.27;;;4.82;;
11504;SDS011;5809;53.262;10.408;2023-07-08T04:35:41;6.03;;;4.60;;
11504;SDS011;5809;53.262;10.408;2023-07-08T04:38:09;7.13;;;4.90;;
11504;SDS011;5809;53.262;10.408;2023-07-08T04:40:41;9.30;;;5.18;;
11504;SDS011;5809;53.262;10.408;2023-07-08T04:43:08;6.10;;;4.65;;
11504;SDS011;5809;53.262;10.408;2023-07-08T04:45:37;7.57;;;4.88;;
11504;SDS011;5809;53.262;10.408;2023-07-08T04:48:04;7.13;;;5.00;;
11504;SDS011;5809;53.262;10.408;2023-07-08T04:50:38;7.10;;;4.95;;
11504;SDS011;5809;53.262;10.408;2023-07-08T04:53:06;5.75;;;4.35;;
11504;SDS011;5809;53.262;10.408;2023-07-08T04:55:33;6.82;;;4.60;;
11504;SDS011;5809;53.262;10.408;2023-07-08T04:58:00;6.07;;;4.50;;
11504;SDS011;5809;53.262;10.408;2023-07-08T05:00:28;5.93;;;4.82;;
11504;SDS011;5809;53.262;10.408;2023-07-08T05:02:55;4.72;;;4.22;;
11504;SDS011;5809;53.262;10.408;2023-07-08T05:05:22;4.88;;;4.38;;
11504;SDS011;5809;53.262;10.408;2023-07-08T05:07:50;5.43;;;4.30;;
11504;SDS011;5809;53.262;10.408;2023-07-08T05:10:18;8.02;;;4.40;;
11504;SDS011;5809;53.262;10.408;2023-07-08T05:12:45;4.53;;;3.80;;
11504;SDS011;5809;53.262;10.408;2023-07-08T05:15:13;5.25;;;4.20;;
11504;SDS011;5809;53.262;10.408;2023-07-08T05:17:41;4.53;;;3.72;;
11504;SDS011;5809;53.262;10.408;2023-07-08T05:20:09;4.97;;;3.53;;
11504;SDS011;5809;53.262;10.408;2023-07-08T05:22:37;4.57;;;3.40;;
11504;SDS011;5809;53.262;10.408;2023-07-08T05:25:06;4.10;;;3.75;;
11504;SDS011;5809;53.262;10.408;2023-07-08T05:27:34;7.47;;;3.88;;
11504;SDS011;5809;53.262;10.408;2023-07-08T05:30:01;5.63;;;3.47;;
11504;SDS011;5809;53.262;10.408;2023-07-08T05:32:31;6.05;;;3.50;;
11504;SDS011;5809;53.262;10.408;2023-07-08T05:34:58;7.00;;;4.07;;
11504;SDS011;5809;53.262;10.408;2023-07-08T05:37:26;5.32;;;3.97;;
11504;SDS011;5809;53.262;10.408;2023-07-08T05:39:53;5.00;;;3.90;;
11504;SDS011;5809;53.262;10.408;2023-07-08T05:42:22;5.78;;;3.35;;
11504;SDS011;5809;53.262;10.408;2023-07-08T05:44:49;6.57;;;4.05;;
11504;SDS011;5809;53.262;10.408;2023-07-08T05:47:17;6.47;;;3.72;;
11504;SDS011;5809;53.262;10.408;2023-07-08T05:49:44;5.53;;;3.55;;
11504;SDS011;5809;53.262;10.408;2023-07-08T05:52:13;5.28;;;3.42;;
11504;SDS011;5809;53.262;10.408;2023-07-08T05:54:41;4.97;;;3.50;;
11504;SDS011;5809;53.262;10.408;2023-07-08T05:57:09;3.55;;;3.20;;
11504;SDS011;5809;53.262;10.408;2023-07-08T05:59:38;6.07;;;3.50;;
11504;SDS011;5809;53.262;10.408;2023-07-08T06:02:05;3.92;;;3.10;;
11504;SDS011;5809;53.262;10.408;2023-07-08T06:04:33;3.65;;;3.05;;
11504;SDS011;5809;53.262;10.408;2023-07-08T06:07:00;6.90;;;3.33;;
11504;SDS011;5809;53.262;10.408;2023-07-08T06:09:27;5.40;;;3.55;;
11504;SDS011;5809;53.262;10.408;2023-07-08T06:11:54;3.47;;;3.15;;
11504;SDS011;5809;53.262;10.408;2023-07-08T06:14:21;3.28;;;2.97;;
11504;SDS011;5809;53.262;10.408;2023-07-08T06:16:50;3.90;;;3.20;;
11504;SDS011;5809;53.262;10.408;2023-07-08T06:19:17;5.57;;;3.30;;
11504;SDS011;5809;53.262;10.408;2023-07-08T06:21:44;4.22;;;3.10;;
11504;SDS011;5809;53.262;10.408;2023-07-08T06:24:11;3.42;;;3.10;;
11504;SDS011;5809;53.262;10.408;2023-07-08T06:26:38;4.00;;;3.28;;
11504;SDS011;5809;53.262;10.408;2023-07-08T06:29:05;6.43;;;3.05;;
11504;SDS011;5809;53.262;10.408;2023-07-08T06:31:31;3.20;;;2.72;;
11504;SDS011;5809;53.262;10.408;2023-07-08T06:34:00;3.38;;;3.00;;
11504;SDS011;5809;53.262;10.408;2023-07-08T06:36:27;4.30;;;2.97;;
11504;SDS011;5809;53.262;10.408;2023-07-08T06:38:54;4.13;;;3.20;;
11504;SDS011;5809;53.262;10.408;2023-07-08T06:41:21;4.60;;;3.10;;
11504;SDS011;5809;53.262;10.408;2023-07-08T06:43:48;3.90;;;2.90;;
11504;SDS011;5809;53.262;10.408;2023-07-08T06:46:15;4.45;;;3.00;;
11504;SDS011;5809;53.262;10.408;2023-07-08T06:48:43;7.80;;;3.10;;
11504;SDS011;5809;53.262;10.408;2023-07-08T06:51:12;5.70;;;2.65;;
11504;SDS011;5809;53.262;10.408;2023-07-08T06:53:39;5.95;;;3.05;;
11504;SDS011;5809;53.262;10.408;2023-07-08T06:56:06;3.10;;;2.78;;
11504;SDS011;5809;53.262;10.408;2023-07-08T06:58:33;7.15;;;3.17;;
11504;SDS011;5809;53.262;10.408;2023-07-08T07:01:00;4.38;;;3.33;;
11504;SDS011;5809;53.262;10.408;2023-07-08T07:03:27;6.53;;;2.92;;
11504;SDS011;5809;53.262;10.408;2023-07-08T07:05:54;3.03;;;2.50;;
11504;SDS011;5809;53.262;10.408;2023-07-08T07:08:23;3.25;;;2.67;;
11504;SDS011;5809;53.262;10.408;2023-07-08T07:10:50;3.15;;;2.78;;
11504;SDS011;5809;53.262;10.408;2023-07-08T07:13:17;3.92;;;2.70;;
11504;SDS011;5809;53.262;10.408;2023-07-08T07:15:44;3.30;;;3.00;;
11504;SDS011;5809;53.262;10.408;2023-07-08T07:18:11;5.63;;;2.88;;
11504;SDS011;5809;53.262;10.408;2023-07-08T07:20:38;6.03;;;2.75;;
11504;SDS011;5809;53.262;10.408;2023-07-08T07:23:05;4.45;;;3.10;;
11504;SDS011;5809;53.262;10.408;2023-07-08T07:25:34;3.85;;;2.90;;
11504;SDS011;5809;53.262;10.408;2023-07-08T07:28:01;5.05;;;2.92;;
11504;SDS011;5809;53.262;10.408;2023-07-08T07:30:29;3.25;;;2.70;;
11504;SDS011;5809;53.262;10.408;2023-07-08T07:32:58;3.83;;;2.80;;
11504;SDS011;5809;53.262;10.408;2023-07-08T07:35:25;5.25;;;2.63;;
11504;SDS011;5809;53.262;10.408;2023-07-08T07:37:52;4.90;;;2.83;;
11504;SDS011;5809;53.262;10.408;2023-07-08T07:40:18;3.58;;;2.83;;
11504;SDS011;5809;53.262;10.408;2023-07-08T07:42:47;2.85;;;2.65;;
11504;SDS011;5809;53.262;10.408;2023-07-08T07:45:14;4.78;;;2.88;;
11504;SDS011;5809;53.262;10.408;2023-07-08T07:47:41;3.10;;;2.80;;
11504;SDS011;5809;53.262;10.408;2023-07-08T07:50:08;3.75;;;2.53;;
11504;SDS011;5809;53.262;10.408;2023-07-08T07:52:35;4.82;;;2.92;;
11504;SDS011;5809;53.262;10.408;2023-07-08T07:55:03;3.25;;;2.58;;
11504;SDS011;5809;53.262;10.408;2023-07-08T07:57:30;5.63;;;2.80;;
11504;SDS011;5809;53.262;10.408;2023-07-08T07:59:59;3.15;;;2.70;;
11504;SDS011;5809;53.262;10.408;2023-07-08T08:02:26;7.70;;;2.90;;
11504;SDS011;5809;53.262;10.408;2023-07-08T08:04:52;4.43;;;2.70;;
11504;SDS011;5809;53.262;10.408;2023-07-08T08:07:20;5.65;;;2.63;;
11504;SDS011;5809;53.262;10.408;2023-07-08T08:09:47;2.50;;;2.30;;
11504;SDS011;5809;53.262;10.408;2023-07-08T08:12:14;3.50;;;2.70;;
11504;SDS011;5809;53.262;10.408;2023-07-08T08:14:40;3.00;;;2.67;;
11504;SDS011;5809;53.262;10.408;2023-07-08T08:17:09;4.35;;;2.75;;
11504;SDS011;5809;53.262;10.408;2023-07-08T08:19:36;3.67;;;2.92;;
11504;SDS011;5809;53.262;10.408;2023-07-08T08:22:03;6.63;;;2.90;;
11504;SDS011;5809;53.262;10.408;2023-07-08T08:24:30;3.97;;;2.88;;
11504;SDS011;5809;53.262;10.408;2023-07-08T08:26:57;3.15;;;2.63;;
11504;SDS011;5809;53.262;10.408;2023-07-08T08:29:24;3.50;;;2.60;;
11504;SDS011;5809;53.262;10.408;2023-07-08T08:31:51;3.03;;;2.72;;
11504;SDS011;5809;53.262;10.408;2023-07-08T08:34:20;3.55;;;2.78;;
11504;SDS011;5809;53.262;10.408;2023-07-08T08:36:47;4.45;;;2.85;;
11504;SDS011;5809;53.262;10.408;2023-07-08T08:39:14;5.13;;;2.90;;
11504;SDS011;5809;53.262;10.408;2023-07-08T08:41:41;3.92;;;2.70;;
11504;SDS011;5809;53.262;10.408;2023-07-08T08:44:10;3.03;;;2.50;;
11504;SDS011;5809;53.262;10.408;2023-07-08T08:46:42;2.70;;;2.50;;
11504;SDS011;5809;53.262;10.408;2023-07-08T08:49:17;3.22;;;2.42;;
11504;SDS011;5809;53.262;10.408;2023-07-08T08:51:51;2.80;;;2.60;;
11504;SDS011;5809;53.262;10.408;2023-07-08T08:54:19;3.42;;;3.10;;
11504;SDS011;5809;53.262;10.408;2023-07-08T08:56:48;3.20;;;2.80;;
11504;SDS011;5809;53.262;10.408;2023-07-08T08:59:24;2.88;;;2.60;;
11504;SDS011;5809;53.262;10.408;2023-07-08T09:01:58;2.75;;;2.55;;
11504;SDS011;5809;53.262;10.408;2023-07-08T09:04:29;3.38;;;3.00;;
11504;SDS011;5809;53.262;10.408;2023-07-08T09:07:04;9.27;;;2.70;;
11504;SDS011;5809;53.262;10.408;2023-07-08T09:09:40;4.70;;;3.00;;
11504;SDS011;5809;53.262;10.408;2023-07-08T09:12:12;4.97;;;2.72;;
11504;SDS011;5809;53.262;10.408;2023-07-08T09:14:43;4.25;;;3.00;;
11504;SDS011;5809;53.262;10.408;2023-07-08T09:17:14;3.72;;;2.83;;
11504;SDS011;5809;53.262;10.408;2023-07-08T09:19:47;5.70;;;3.10;;
11504;SDS011;5809;53.262;10.408;2023-07-08T09:22:19;3.55;;;2.90;;
11504;SDS011;5809;53.262;10.408;2023-07-08T09:24:53;3.45;;;2.90;;
11504;SDS011;5809;53.262;10.408;2023-07-08T09:27:24;6.15;;;3.17;;
11504;SDS011;5809;53.262;10.408;2023-07-08T09:29:51;6.15;;;2.90;;
11504;SDS011;5809;53.262;10.408;2023-07-08T09:32:18;3.70;;;2.90;;
11504;SDS011;5809;53.262;10.408;2023-07-08T09:34:49;2.90;;;2.70;;
11504;SDS011;5809;53.262;10.408;2023-07-08T09:37:22;4.57;;;3.13;;
11504;SDS011;5809;53.262;10.408;2023-07-08T09:39:54;3.35;;;3.08;;
11504;SDS011;5809;53.262;10.408;2023-07-08T09:42:23;3.85;;;2.80;;
11504;SDS011;5809;53.262;10.408;2023-07-08T09:44:54;3.22;;;2.70;;
11504;SDS011;5809;53.262;10.408;2023-07-08T09:47:24;2.90;;;2.70;;
11504;SDS011;5809;53.262;10.408;2023-07-08T09:49:57;5.15;;;2.95;;
11504;SDS011;5809;53.262;10.408;2023-07-08T09:52:24;3.63;;;3.10;;
11504;SDS011;5809;53.262;10.408;2023-07-08T09:54:51;5.72;;;3.00;;
11504;SDS011;5809;53.262;10.408;2023-07-08T09:57:21;3.38;;;2.90;;
11504;SDS011;5809;53.262;10.408;2023-07-08T09:59:53;4.40;;;3.00;;
11504;SDS011;5809;53.262;10.408;2023-07-08T10:02:30;4.38;;;3.00;;
11504;SDS011;5809;53.262;10.408;2023-07-08T10:05:00;4.70;;;2.92;;
11504;SDS011;5809;53.262;10.408;2023-07-08T10:07:33;4.57;;;3.00;;
11504;SDS011;5809;53.262;10.408;2023-07-08T10:10:02;6.47;;;3.10;;
11504;SDS011;5809;53.262;10.408;2023-07-08T10:12:33;5.70;;;2.90;;
11504;SDS011;5809;53.262;10.408;2023-07-08T10:15:05;4.65;;;2.95;;
11504;SDS011;5809;53.262;10.408;2023-07-08T10:17:39;3.42;;;3.00;;
11504;SDS011;5809;53.262;10.408;2023-07-08T10:20:10;3.42;;;3.13;;
11504;SDS011;5809;53.262;10.408;2023-07-08T10:22:39;4.43;;;3.00;;
11504;SDS011;5809;53.262;10.408;2023-07-08T10:25:16;4.38;;;3.22;;
11504;SDS011;5809;53.262;10.408;2023-07-08T10:27:56;3.10;;;2.80;;
11504;SDS011;5809;53.262;10.408;2023-07-08T10:30:30;5.15;;;2.90;;
11504;SDS011;5809;53.262;10.408;2023-07-08T10:33:06;5.03;;;2.67;;
11504;SDS011;5809;53.262;10.408;2023-07-08T10:35:47;3.45;;;2.90;;
11504;SDS011;5809;53.262;10.408;2023-07-08T10:38:34;4.63;;;3.13;;
11504;SDS011;5809;53.262;10.408;2023-07-08T10:41:15;3.28;;;2.97;;
11504;SDS011;5809;53.262;10.408;2023-07-08T10:43:53;2.80;;;2.60;;
11504;SDS011;5809;53.262;10.408;2023-07-08T10:46:32;3.42;;;3.13;;
11504;SDS011;5809;53.262;10.408;2023-07-08T10:52:07;4.28;;;2.80;;
11504;SDS011;5809;53.262;10.408;2023-07-08T10:54:46;6.85;;;3.00;;
11504;SDS011;5809;53.262;10.408;2023-07-08T10:57:37;5.63;;;2.90;;
11504;SDS011;5809;53.262;10.408;2023-07-08T11:00:28;8.73;;;2.92;;
11504;SDS011;5809;53.262;10.408;2023-07-08T11:03:16;3.60;;;2.75;;
11504;SDS011;5809;53.262;10.408;2023-07-08T11:05:57;3.35;;;3.00;;
11504;SDS011;5809;53.262;10.408;2023-07-08T11:08:30;4.22;;;2.92;;
11504;SDS011;5809;53.262;10.408;2023-07-08T11:11:03;3.85;;;2.63;;
11504;SDS011;5809;53.262;10.408;2023-07-08T11:13:33;5.20;;;3.00;;
11504;SDS011;5809;53.262;10.408;2023-07-08T11:16:05;3.35;;;2.90;;
11504;SDS011;5809;53.262;10.408;2023-07-08T11:18:39;3.65;;;2.42;;
11504;SDS011;5809;53.262;10.408;2023-07-08T11:21:09;3.35;;;3.03;;
11504;SDS011;5809;53.262;10.408;2023-07-08T11:23:43;4.50;;;3.10;;
11504;SDS011;5809;53.262;10.408;2023-07-08T11:26:16;4.55;;;2.83;;
11504;SDS011;5809;53.262;10.408;2023-07-08T11:28:49;3.85;;;2.90;;
11504;SDS011;5809;53.262;10.408;2023-07-08T11:31:19;4.93;;;2.80;;
11504;SDS011;5809;53.262;10.408;2023-07-08T11:33:48;6.60;;;3.28;;
11504;SDS011;5809;53.262;10.408;2023-07-08T11:36:16;3.20;;;2.90;;
11504;SDS011;5809;53.262;10.408;2023-07-08T11:38:50;3.00;;;2.70;;
11504;SDS011;5809;53.262;10.408;2023-07-08T11:41:20;3.15;;;2.75;;
11504;SDS011;5809;53.262;10.408;2023-07-08T11:43:50;4.10;;;2.80;;
11504;SDS011;5809;53.262;10.408;2023-07-08T11:46:21;4.30;;;2.90;;
11504;SDS011;5809;53.262;10.408;2023-07-08T11:48:53;3.10;;;2.85;;
11504;SDS011;5809;53.262;10.408;2023-07-08T11:51:23;5.90;;;3.20;;
11504;SDS011;5809;53.262;10.408;2023-07-08T11:54:00;5.63;;;3.03;;
11504;SDS011;5809;53.262;10.408;2023-07-08T11:56:46;4.88;;;3.20;;
11504;SDS011;5809;53.262;10.408;2023-07-08T11:59:16;3.22;;;2.85;;
11504;SDS011;5809;53.262;10.408;2023-07-08T12:01:48;2.97;;;2.60;;
11504;SDS011;5809;53.262;10.408;2023-07-08T12:04:26;5.45;;;2.70;;
11504;SDS011;5809;53.262;10.408;2023-07-08T12:07:12;3.80;;;2.70;;
11504;SDS011;5809;53.262;10.408;2023-07-08T12:09:48;5.75;;;3.25;;
11504;SDS011;5809;53.262;10.408;2023-07-08T12:12:24;3.90;;;2.85;;
11504;SDS011;5809;53.262;10.408;2023-07-08T12:14:54;3.45;;;2.80;;
11504;SDS011;5809;53.262;10.408;2023-07-08T12:17:27;3.72;;;2.85;;
11504;SDS011;5809;53.262;10.408;2023-07-08T12:19:56;5.50;;;2.80;;
11504;SDS011;5809;53.262;10.408;2023-07-08T12:22:28;9.40;;;3.28;;
11504;SDS011;5809;53.262;10.408;2023-07-08T12:24:56;7.10;;;3.00;;
11504;SDS011;5809;53.262;10.408;2023-07-08T12:27:29;3.25;;;2.95;;
11504;SDS011;5809;53.262;10.408;2023-07-08T12:29:56;4.25;;;3.30;;
11504;SDS011;5809;53.262;10.408;2023-07-08T12:32:23;4.88;;;3.10;;
11504;SDS011;5809;53.262;10.408;2023-07-08T12:34:52;5.65;;;3.30;;
11504;SDS011;5809;53.262;10.408;2023-07-08T12:37:19;4.32;;;2.90;;
11504;SDS011;5809;53.262;10.408;2023-07-08T12:39:53;3.88;;;3.10;;
11504;SDS011;5809;53.262;10.408;2023-07-08T12:42:22;3.53;;;2.95;;
11504;SDS011;5809;53.262;10.408;2023-07-08T12:44:49;5.43;;;3.25;;
11504;SDS011;5809;53.262;10.408;2023-07-08T12:47:19;5.20;;;3.47;;
11504;SDS011;5809;53.262;10.408;2023-07-08T12:49:46;4.55;;;3.10;;
11504;SDS011;5809;53.262;10.408;2023-07-08T12:52:20;3.67;;;3.15;;
11504;SDS011;5809;53.262;10.408;2023-07-08T12:54:48;4.13;;;2.92;;
11504;SDS011;5809;53.262;10.408;2023-07-08T12:57:15;3.53;;;3.22;;
11504;SDS011;5809;53.262;10.408;2023-07-08T12:59:45;3.33;;;3.03;;
11504;SDS011;5809;53.262;10.408;2023-07-08T13:02:14;3.25;;;3.00;;
11504;SDS011;5809;53.262;10.408;2023-07-08T13:04:43;11.02;;;3.78;;
11504;SDS011;5809;53.262;10.408;2023-07-08T13:07:13;10.73;;;3.45;;
11504;SDS011;5809;53.262;10.408;2023-07-08T13:09:49;6.15;;;3.70;;
11504;SDS011;5809;53.262;10.408;2023-07-08T13:12:17;3.75;;;3.45;;
11504;SDS011;5809;53.262;10.408;2023-07-08T13:14:50;5.65;;;3.80;;
11504;SDS011;5809;53.262;10.408;2023-07-08T13:17:18;4.30;;;3.70;;
11504;SDS011;5809;53.262;10.408;2023-07-08T13:19:46;5.72;;;4.00;;
11504;SDS011;5809;53.262;10.408;2023-07-08T13:22:15;3.60;;;3.30;;
11504;SDS011;5809;53.262;10.408;2023-07-08T13:24:43;5.30;;;3.53;;
11504;SDS011;5809;53.262;10.408;2023-07-08T13:27:13;3.70;;;3.40;;
11504;SDS011;5809;53.262;10.408;2023-07-08T13:29:51;3.90;;;3.60;;
11504;SDS011;5809;53.262;10.408;2023-07-08T13:32:19;5.30;;;3.22;;
11504;SDS011;5809;53.262;10.408;2023-07-08T13:34:48;9.20;;;3.22;;
11504;SDS011;5809;53.262;10.408;2023-07-08T13:37:15;4.45;;;3.08;;
11504;SDS011;5809;53.262;10.408;2023-07-08T13:39:46;4.00;;;3.33;;
11504;SDS011;5809;53.262;10.408;2023-07-08T13:42:13;7.70;;;3.00;;
11504;SDS011;5809;53.262;10.408;2023-07-08T13:44:43;3.97;;;3.50;;
11504;SDS011;5809;53.262;10.408;2023-07-08T13:47:23;4.25;;;3.08;;
11504;SDS011;5809;53.262;10.408;2023-07-08T13:49:55;4.20;;;3.80;;
11504;SDS011;5809;53.262;10.408;2023-07-08T13:52:26;4.20;;;3.80;;
11504;SDS011;5809;53.262;10.408;2023-07-08T13:54:54;4.53;;;3.60;;
11504;SDS011;5809;53.262;10.408;2023-07-08T13:57:28;4.97;;;3.65;;
11504;SDS011;5809;53.262;10.408;2023-07-08T13:59:57;4.85;;;3.13;;
11504;SDS011;5809;53.262;10.408;2023-07-08T14:02:26;4.75;;;3.58;;
11504;SDS011;5809;53.262;10.408;2023-07-08T14:04:56;3.20;;;3.00;;
11504;SDS011;5809;53.262;10.408;2023-07-08T14:07:25;4.45;;;3.58;;
11504;SDS011;5809;53.262;10.408;2023-07-08T14:09:55;5.78;;;3.28;;
11504;SDS011;5809;53.262;10.408;2023-07-08T14:12:22;4.70;;;3.60;;
11504;SDS011;5809;53.262;10.408;2023-07-08T14:14:50;3.47;;;3.17;;
11504;SDS011;5809;53.262;10.408;2023-07-08T14:17:18;5.43;;;3.00;;
11504;SDS011;5809;53.262;10.408;2023-07-08T14:19:48;5.07;;;3.30;;
11504;SDS011;5809;53.262;10.408;2023-07-08T14:22:20;4.72;;;3.90;;
11504;SDS011;5809;53.262;10.408;2023-07-08T14:24:49;3.55;;;3.17;;
11504;SDS011;5809;53.262;10.408;2023-07-08T14:27:16;5.57;;;3.22;;
11504;SDS011;5809;53.262;10.408;2023-07-08T14:29:45;6.30;;;3.22;;
11504;SDS011;5809;53.262;10.408;2023-07-08T14:32:15;6.90;;;3.30;;
11504;SDS011;5809;53.262;10.408;2023-07-08T14:34:48;6.53;;;3.00;;
11504;SDS011;5809;53.262;10.408;2023-07-08T14:37:18;5.03;;;3.53;;
11504;SDS011;5809;53.262;10.408;2023-07-08T14:39:45;3.90;;;3.60;;
11504;SDS011;5809;53.262;10.408;2023-07-08T14:42:13;4.75;;;3.55;;
11504;SDS011;5809;53.262;10.408;2023-07-08T14:44:42;3.72;;;3.42;;
11504;SDS011;5809;53.262;10.408;2023-07-08T14:47:11;5.65;;;3.50;;
11504;SDS011;5809;53.262;10.408;2023-07-08T14:49:39;5.95;;;4.18;;
11504;SDS011;5809;53.262;10.408;2023-07-08T14:52:07;5.93;;;4.00;;
11504;SDS011;5809;53.262;10.408;2023-07-08T14:54:34;5.95;;;4.22;;
11504;SDS011;5809;53.262;10.408;2023-07-08T14:57:01;5.90;;;3.95;;
11504;SDS011;5809;53.262;10.408;2023-07-08T14:59:31;4.70;;;3.83;;
11504;SDS011;5809;53.262;10.408;2023-07-08T15:02:01;4.60;;;3.80;;
11504;SDS011;5809;53.262;10.408;2023-07-08T15:04:37;4.40;;;3.97;;